Time;durP1;ratioP1;P1;durP2;ratioP2;P2;SDS_P1;SDS_P2;PMS_P1;PMS_P2;Temp;Humidity;BMP_temperature;BMP_pressure;BME280_temperature;BME280_humidity;BME280_pressure;Samples;Min_cycle;Max_cycle;Signal;HPM_P1;HPM_P2
2021/10/31 00:01:04;;;;;;;;;;;282.50;2278.40;;;;;;5130535;27;20418;-75
2021/10/31 00:03:31;;;;;;;;;;;282.50;2278.40;;;;;;5128540;27;19907;-75
2021/10/31 00:05:57;;;;;;;;;;;282.50;2278.40;;;;;;5127464;27;19959;-74
2021/10/31 00:08:22;;;;;;;;;;;282.50;2278.40;;;;;;5127816;27;19908;-74
2021/10/31 00:10:49;;;;;;;;;;;282.50;2278.40;;;;;;5129427;27;20304;-74
2021/10/31 00:13:15;;;;;;;;;;;282.50;2278.40;;;;;;5114146;27;20337;-74
2021/10/31 00:15:40;;;;;;;;;;;282.50;2278.40;;;;;;5129508;27;19904;-74
2021/10/31 00:18:06;;;;;;;;;;;282.50;2278.40;;;;;;5129162;27;20006;-74
2021/10/31 00:20:31;;;;;;;;;;;282.50;2278.40;;;;;;5129615;27;20319;-75
2021/10/31 00:22:57;;;;;;;;;;;282.50;2278.40;;;;;;5129481;27;19910;-74
2021/10/31 00:25:23;;;;;;;;;;;282.50;2278.40;;;;;;5128676;27;19904;-74
2021/10/31 00:27:48;;;;;;;;;;;282.50;2278.40;;;;;;5111984;27;20011;-75
2021/10/31 00:30:14;;;;;;;;;;;282.50;2278.40;;;;;;5130038;27;20416;-75
2021/10/31 00:32:40;;;;;;;;;;;282.50;2278.40;;;;;;5111804;27;19998;-74
2021/10/31 00:35:06;;;;;;;;;;;282.50;2278.40;;;;;;5130722;27;19903;-76
2021/10/31 00:37:31;;;;;;;;;;;282.50;2278.40;;;;;;5116255;27;19926;-79
2021/10/31 00:39:57;;;;;;;;;;;282.40;2278.40;;;;;;5130117;27;20405;-76
2021/10/31 00:42:23;;;;;;;;;;;282.50;2278.40;;;;;;5128989;27;20398;-75
2021/10/31 00:44:48;;;;;;;;;;;282.40;2278.40;;;;;;5128163;27;19911;-75
2021/10/31 00:47:14;;;;;;;;;;;282.40;2278.40;;;;;;5128130;27;19903;-76
2021/10/31 00:49:40;;;;;;;;;;;282.30;2278.40;;;;;;5129453;27;19918;-74
2021/10/31 00:52:05;;;;;;;;;;;282.30;2278.40;;;;;;5103475;27;19904;-75
2021/10/31 00:54:31;;;;;;;;;;;282.30;2278.40;;;;;;5100465;27;19908;-74
2021/10/31 00:56:57;;;;;;;;;;;282.30;2278.40;;;;;;5118377;27;19968;-75
2021/10/31 00:59:23;;;;;;;;;;;282.30;2278.40;;;;;;5126325;27;20746;-75
2021/10/31 01:01:50;;;;;;;;;;;282.30;2278.40;;;;;;5128032;27;19903;-75
2021/10/31 01:04:20;;;;;;;;;;;282.30;2278.40;;;;;;5128073;27;20304;-74
2021/10/31 01:06:51;;;;;;;;;;;282.40;2278.40;;;;;;5129066;27;20303;-74
2021/10/31 01:09:36;;;;;;;;;;;282.30;2278.40;;;;;;5128036;27;19944;-76
2021/10/31 01:12:20;;;;;;;;;;;282.30;2278.40;;;;;;5130294;27;19915;-74
2021/10/31 01:14:48;;;;;;;;;;;282.30;2278.40;;;;;;5130061;27;19951;-77
2021/10/31 01:17:15;;;;;;;;;;;282.30;2278.40;;;;;;5124233;27;20048;-74
2021/10/31 01:20:05;;;;;;;;;;;282.20;2278.40;;;;;;5125160;27;19907;-75
2021/10/31 01:22:49;;;;;;;;;;;282.30;2278.40;;;;;;5132328;27;20421;-77
2021/10/31 01:25:17;;;;;;;;;;;282.20;2278.40;;;;;;5132739;27;19911;-74
2021/10/31 01:28:05;;;;;;;;;;;282.30;2278.40;;;;;;5131070;27;19904;-77
2021/10/31 01:30:40;;;;;;;;;;;282.20;2278.40;;;;;;5132218;28;19918;-79
2021/10/31 01:33:11;;;;;;;;;;;282.20;2278.40;;;;;;5131480;28;19907;-75
2021/10/31 01:36:01;;;;;;;;;;;282.20;2278.40;;;;;;5133718;28;19908;-75
2021/10/31 01:38:27;;;;;;;;;;;282.20;2278.40;;;;;;5133670;28;19994;-75
2021/10/31 01:40:55;;;;;;;;;;;282.10;2278.40;;;;;;5133745;28;19950;-74
2021/10/31 01:43:21;;;;;;;;;;;282.10;2278.40;;;;;;5133633;27;19976;-75
2021/10/31 01:46:04;;;;;;;;;;;282.10;2278.40;;;;;;5133755;28;20357;-75
2021/10/31 01:48:35;;;;;;;;;;;282.00;2278.40;;;;;;5131620;28;19912;-74
2021/10/31 01:51:05;;;;;;;;;;;282.00;2278.40;;;;;;5133753;27;19976;-74
2021/10/31 01:53:30;;;;;;;;;;;282.00;2278.40;;;;;;5133719;27;19950;-75
2021/10/31 01:56:00;;;;;;;;;;;281.90;2278.40;;;;;;5133604;28;19950;-74
2021/10/31 01:58:30;;;;;;;;;;;281.90;2278.40;;;;;;5130881;28;19904;-74
2021/10/31 02:00:57;;;;;;;;;;;282.00;2278.40;;;;;;5136796;27;19911;-74
2021/10/31 02:03:23;;;;;;;;;;;281.90;2278.40;;;;;;5137694;27;19937;-74
2021/10/31 02:05:49;;;;;;;;;;;281.90;2278.40;;;;;;5137729;27;19943;-75
2021/10/31 02:08:15;;;;;;;;;;;282.00;2278.40;;;;;;5137695;27;19954;-78
2021/10/31 02:10:41;;;;;;;;;;;281.90;2278.40;;;;;;5127500;27;19919;-76
2021/10/31 02:13:09;;;;;;;;;;;281.90;2278.40;;;;;;5118087;27;19927;-74
2021/10/31 02:15:36;;;;;;;;;;;281.80;2278.40;;;;;;5113095;27;19951;-74
2021/10/31 02:18:02;;;;;;;;;;;281.70;2278.40;;;;;;5130496;27;19943;-74
2021/10/31 02:20:28;;;;;;;;;;;281.70;2278.40;;;;;;5113868;27;19950;-74
2021/10/31 02:22:57;;;;;;;;;;;281.70;2278.40;;;;;;5117560;27;19904;-75
2021/10/31 02:25:24;;;;;;;;;;;281.70;2278.40;;;;;;5132063;27;19956;-75
2021/10/31 02:27:50;;;;;;;;;;;281.70;2278.40;;;;;;5131571;27;19939;-74
2021/10/31 02:30:16;;;;;;;;;;;281.70;2278.40;;;;;;5131752;27;19957;-74
2021/10/31 02:32:41;;;;;;;;;;;281.70;2278.40;;;;;;5130393;27;19994;-74
2021/10/31 02:35:09;;;;;;;;;;;281.60;2278.40;;;;;;5127896;27;19911;-74
2021/10/31 02:37:37;;;;;;;;;;;281.60;2278.40;;;;;;5126930;27;20403;-74
2021/10/31 02:40:03;;;;;;;;;;;256.90;2252.80;;;;;;5125685;27;19949;-74
2021/10/31 02:42:28;;;;;;;;;;;256.90;2252.80;;;;;;5127165;27;19911;-75
2021/10/31 02:44:54;;;;;;;;;;;256.90;2252.80;;;;;;5110182;27;20375;-74
2021/10/31 02:47:40;;;;;;;;;;;256.90;2252.80;;;;;;5120308;27;19903;-74
2021/10/31 02:50:08;;;;;;;;;;;256.90;2252.80;;;;;;5053064;28;20021;-75
2021/10/31 02:52:42;;;;;;;;;;;256.90;2252.80;;;;;;5053504;28;19905;-74
2021/10/31 02:55:12;;;;;;;;;;;256.90;2252.80;;;;;;5050961;28;19991;-74
2021/10/31 02:57:59;;;;;;;;;;;256.90;2252.80;;;;;;5053332;28;19904;-75
2021/10/31 03:00:26;;;;;;;;;;;256.90;2252.80;;;;;;5053204;28;19911;-74
2021/10/31 03:02:52;;;;;;;;;;;256.90;2252.80;;;;;;5053302;28;20378;-74
2021/10/31 03:05:17;;;;;;;;;;;256.90;2252.80;;;;;;5053426;28;19909;-74
2021/10/31 03:07:43;;;;;;;;;;;256.90;2252.80;;;;;;5053234;28;19905;-74
2021/10/31 03:10:09;;;;;;;;;;;256.80;2252.80;;;;;;5053176;28;20425;-74
2021/10/31 03:12:35;;;;;;;;;;;256.80;2252.80;;;;;;5059085;28;19917;-75
2021/10/31 03:15:00;;;;;;;;;;;256.80;2252.80;;;;;;5053122;28;19915;-74
2021/10/31 03:17:26;;;;;;;;;;;256.70;2252.80;;;;;;5053154;28;19905;-74
2021/10/31 03:19:52;;;;;;;;;;;256.70;2252.80;;;;;;5052955;28;19911;-74
2021/10/31 03:22:17;;;;;;;;;;;256.70;2252.80;;;;;;5053084;28;19955;-74
2021/10/31 03:24:43;;;;;;;;;;;256.50;2252.80;;;;;;5065884;28;20279;-75
2021/10/31 03:27:08;;;;;;;;;;;256.50;2252.80;;;;;;5081604;28;19904;-76
2021/10/31 03:29:34;;;;;;;;;;;256.50;2252.80;;;;;;5109037;28;19911;-74
2021/10/31 03:32:00;;;;;;;;;;;256.50;2252.80;;;;;;5111791;28;19904;-74
2021/10/31 03:34:25;;;;;;;;;;;256.50;2252.80;;;;;;5111762;28;19904;-74
2021/10/31 03:36:51;;;;;;;;;;;256.40;2252.80;;;;;;5111702;28;19908;-74
2021/10/31 03:39:17;;;;;;;;;;;256.40;2252.80;;;;;;5111804;28;19908;-74
2021/10/31 03:41:45;;;;;;;;;;;281.80;2278.40;;;;;;5108658;28;20361;-74
2021/10/31 03:44:14;;;;;;;;;;;256.30;2252.80;;;;;;5094476;28;19907;-74
2021/10/31 03:46:39;;;;;;;;;;;256.30;2252.80;;;;;;5108908;28;20315;-74
2021/10/31 03:49:05;;;;;;;;;;;256.30;2252.80;;;;;;5111358;28;19908;-74
2021/10/31 03:51:30;;;;;;;;;;;256.20;2252.80;;;;;;5110642;28;19907;-74
2021/10/31 03:53:56;;;;;;;;;;;256.10;2252.80;;;;;;5110101;28;20373;-74
2021/10/31 03:56:21;;;;;;;;;;;256.20;2252.80;;;;;;5110489;28;20367;-74
2021/10/31 03:58:47;;;;;;;;;;;256.20;2252.80;;;;;;5114779;28;19908;-74
2021/10/31 04:01:13;;;;;;;;;;;256.10;2252.80;;;;;;5114708;28;20380;-74
2021/10/31 04:03:38;;;;;;;;;;;256.00;2252.80;;;;;;5114719;28;20326;-74
2021/10/31 04:06:04;;;;;;;;;;;231.30;2252.80;;;;;;5108435;28;19919;-75
2021/10/31 04:08:29;;;;;;;;;;;231.30;2252.80;;;;;;5108376;28;19908;-74
2021/10/31 04:10:55;;;;;;;;;;;231.30;2252.80;;;;;;5110823;28;20281;-74
2021/10/31 04:13:21;;;;;;;;;;;231.20;2252.80;;;;;;5124832;27;20002;-74
2021/10/31 04:15:46;;;;;;;;;;;231.20;2252.80;;;;;;5126499;27;20154;-74
2021/10/31 04:18:12;;;;;;;;;;;231.20;2252.80;;;;;;5124273;27;20269;-74
2021/10/31 04:20:37;;;;;;;;;;;231.20;2252.80;;;;;;5124800;27;20374;-74
2021/10/31 04:23:03;;;;;;;;;;;231.20;2252.80;;;;;;5124623;27;19939;-74
2021/10/31 04:25:29;;;;;;;;;;;231.10;2252.80;;;;;;5123338;27;20330;-74
2021/10/31 04:27:54;;;;;;;;;;;231.10;2252.80;;;;;;5123929;27;19904;-74
2021/10/31 04:30:20;;;;;;;;;;;231.10;2252.80;;;;;;5124380;27;19941;-74
2021/10/31 04:32:46;;;;;;;;;;;231.20;2252.80;;;;;;5125765;27;19910;-73
2021/10/31 04:35:11;;;;;;;;;;;231.20;2252.80;;;;;;5123642;27;19904;-74
2021/10/31 04:37:39;;;;;;;;;;;231.20;2252.80;;;;;;5124735;27;19911;-74
2021/10/31 04:40:07;;;;;;;;;;;231.10;2252.80;;;;;;5125708;27;19978;-74
2021/10/31 04:42:33;;;;;;;;;;;231.10;2252.80;;;;;;5131772;27;20317;-74
2021/10/31 04:44:59;;;;;;;;;;;231.00;2252.80;;;;;;5116082;27;19965;-74
2021/10/31 04:47:25;;;;;;;;;;;231.00;2252.80;;;;;;5134583;27;20344;-74
2021/10/31 04:49:50;;;;;;;;;;;231.00;2252.80;;;;;;5134422;27;20006;-74
2021/10/31 04:52:16;;;;;;;;;;;231.00;2252.80;;;;;;5134526;27;19926;-74
2021/10/31 04:54:42;;;;;;;;;;;231.00;2252.80;;;;;;5134248;27;20308;-74
2021/10/31 04:57:07;;;;;;;;;;;230.90;2252.80;;;;;;5134141;27;19908;-74
2021/10/31 04:59:33;;;;;;;;;;;230.90;2252.80;;;;;;5134240;27;19926;-74
2021/10/31 05:01:59;;;;;;;;;;;230.90;2252.80;;;;;;5134451;27;19946;-76
2021/10/31 05:04:24;;;;;;;;;;;230.80;2252.80;;;;;;5115525;27;19907;-79
2021/10/31 05:06:50;;;;;;;;;;;230.80;2252.80;;;;;;5115860;27;20306;-73
2021/10/31 05:09:16;;;;;;;;;;;230.80;2252.80;;;;;;5134050;27;19918;-73
2021/10/31 05:11:42;;;;;;;;;;;230.70;2252.80;;;;;;5133798;27;19907;-74
2021/10/31 05:14:07;;;;;;;;;;;230.80;2252.80;;;;;;5133728;27;19946;-74
2021/10/31 05:16:35;;;;;;;;;;;230.70;2252.80;;;;;;5134055;27;19990;-73
2021/10/31 05:19:01;;;;;;;;;;;230.70;2252.80;;;;;;5134151;27;19903;-74
2021/10/31 05:21:27;;;;;;;;;;;230.70;2252.80;;;;;;5115729;27;19904;-74
2021/10/31 05:23:52;;;;;;;;;;;230.70;2252.80;;;;;;5134026;27;19911;-74
2021/10/31 05:26:18;;;;;;;;;;;230.60;2252.80;;;;;;5133877;27;19907;-74
2021/10/31 05:28:45;;;;;;;;;;;230.60;2252.80;;;;;;5133781;27;19910;-73
2021/10/31 05:31:10;;;;;;;;;;;230.60;2252.80;;;;;;5133822;27;19907;-73
2021/10/31 05:33:36;;;;;;;;;;;230.70;2252.80;;;;;;5133801;27;19915;-73
2021/10/31 05:36:02;;;;;;;;;;;230.60;2252.80;;;;;;5133413;27;19904;-74
2021/10/31 05:38:27;;;;;;;;;;;230.60;2252.80;;;;;;5133604;28;20357;-74
2021/10/31 05:40:53;;;;;;;;;;;230.60;2252.80;;;;;;5118249;28;19907;-73
2021/10/31 05:43:19;;;;;;;;;;;231.30;2252.80;;;;;;5131608;28;19911;-74
2021/10/31 05:45:45;;;;;;;;;;;230.70;2252.80;;;;;;5133807;28;19911;-74
2021/10/31 05:48:11;;;;;;;;;;;230.70;2252.80;;;;;;5133583;28;19910;-73
2021/10/31 05:50:37;;;;;;;;;;;230.70;2252.80;;;;;;5133672;28;19919;-73
2021/10/31 05:53:03;;;;;;;;;;;230.70;2252.80;;;;;;5133577;28;20030;-73
2021/10/31 05:55:29;;;;;;;;;;;230.70;2252.80;;;;;;5133545;28;19964;-73
2021/10/31 05:57:55;;;;;;;;;;;230.80;2252.80;;;;;;5133625;28;19903;-74
2021/10/31 06:00:21;;;;;;;;;;;230.80;2252.80;;;;;;5115194;28;19925;-75
2021/10/31 06:02:46;;;;;;;;;;;230.90;2252.80;;;;;;5133614;28;19907;-74
2021/10/31 06:05:12;;;;;;;;;;;231.00;2252.80;;;;;;5127362;28;19911;-75
2021/10/31 06:07:42;;;;;;;;;;;231.00;2252.80;;;;;;5123797;28;19953;-75
2021/10/31 06:10:11;;;;;;;;;;;231.20;2252.80;;;;;;5115050;28;19958;-75
2021/10/31 06:12:40;;;;;;;;;;;231.20;2252.80;;;;;;5112549;28;19942;-74
2021/10/31 06:15:06;;;;;;;;;;;231.20;2252.80;;;;;;5133228;28;19918;-74
2021/10/31 06:17:32;;;;;;;;;;;231.30;2252.80;;;;;;5133238;27;19904;-80
2021/10/31 06:19:58;;;;;;;;;;;231.30;2252.80;;;;;;5133378;28;19911;-75
2021/10/31 06:22:23;;;;;;;;;;;256.00;2252.80;;;;;;5133168;28;19908;-74
2021/10/31 06:24:49;;;;;;;;;;;256.10;2252.80;;;;;;5129596;28;19947;-75
2021/10/31 06:27:14;;;;;;;;;;;256.20;2252.80;;;;;;5127627;28;20360;-74
2021/10/31 06:29:40;;;;;;;;;;;256.30;2252.80;;;;;;5133252;27;19911;-75
2021/10/31 06:32:06;;;;;;;;;;;256.30;2252.80;;;;;;5133573;28;20398;-78
2021/10/31 06:34:31;;;;;;;;;;;256.40;2252.80;;;;;;5133322;27;19911;-74
2021/10/31 06:36:57;;;;;;;;;;;256.50;2252.80;;;;;;5133530;28;19907;-80
2021/10/31 06:39:22;;;;;;;;;;;256.60;2252.80;;;;;;5133235;28;20002;-75
2021/10/31 06:41:48;;;;;;;;;;;256.70;2252.80;;;;;;5133185;28;20326;-80
2021/10/31 06:44:14;;;;;;;;;;;256.70;2252.80;;;;;;5133441;28;19912;-77
2021/10/31 06:46:39;;;;;;;;;;;256.80;2252.80;;;;;;5135594;27;19907;-81
2021/10/31 06:49:08;;;;;;;;;;;256.90;2252.80;;;;;;5136998;27;19907;-78
2021/10/31 06:51:33;;;;;;;;;;;281.60;2278.40;;;;;;5118341;27;19920;-75
2021/10/31 06:53:59;;;;;;;;;;;281.60;2278.40;;;;;;5136739;27;20362;-74
2021/10/31 06:56:26;;;;;;;;;;;281.70;2278.40;;;;;;5136832;27;19903;-75
2021/10/31 06:58:51;;;;;;;;;;;281.80;2278.40;;;;;;5118519;27;19961;-76
2021/10/31 07:01:17;;;;;;;;;;;281.90;2278.40;;;;;;5136453;27;20265;-75
2021/10/31 07:03:45;;;;;;;;;;;282.00;2278.40;;;;;;5137006;27;19994;-79
2021/10/31 07:06:11;;;;;;;;;;;282.10;2278.40;;;;;;5136746;27;20412;-75
2021/10/31 07:08:37;;;;;;;;;;;282.10;2278.40;;;;;;5136963;27;19954;-79
2021/10/31 07:11:02;;;;;;;;;;;282.20;2278.40;;;;;;5136591;27;19915;-74
2021/10/31 07:13:28;;;;;;;;;;;282.30;2278.40;;;;;;5136501;27;20357;-74
2021/10/31 07:15:53;;;;;;;;;;;282.50;2278.40;;;;;;5136675;27;20241;-75
2021/10/31 07:18:19;;;;;;;;;;;282.50;2278.40;;;;;;5136419;27;19957;-74
2021/10/31 07:20:44;;;;;;;;;;;307.30;2304.00;;;;;;5136644;27;20387;-78
2021/10/31 07:23:10;;;;;;;;;;;307.30;2304.00;;;;;;5117570;27;20006;-73
2021/10/31 07:25:36;;;;;;;;;;;307.30;2304.00;;;;;;5136758;27;19903;-75
2021/10/31 07:28:01;;;;;;;;;;;307.40;2304.00;;;;;;5136433;27;19914;-75
2021/10/31 07:30:27;;;;;;;;;;;307.50;2304.00;;;;;;5136318;27;19915;-79
2021/10/31 07:32:54;;;;;;;;;;;307.50;2304.00;;;;;;5117923;27;19908;-76
2021/10/31 07:35:20;;;;;;;;;;;307.60;2304.00;;;;;;5131436;27;19911;-77
2021/10/31 07:37:45;;;;;;;;;;;307.70;2304.00;;;;;;5108771;27;19903;-79
2021/10/31 07:40:11;;;;;;;;;;;307.70;2304.00;;;;;;5133139;27;19911;-78
2021/10/31 07:42:37;;;;;;;;;;;307.80;2304.00;;;;;;5124823;27;20361;-79
2021/10/31 07:45:03;;;;;;;;;;;307.90;2304.00;;;;;;5134933;27;20365;-74
2021/10/31 07:47:29;;;;;;;;;;;308.00;2304.00;;;;;;5104287;27;20040;-78
2021/10/31 07:49:55;;;;;;;;;;;308.10;2304.00;;;;;;5135833;27;20343;-75
2021/10/31 07:52:21;;;;;;;;;;;332.80;2329.60;;;;;;5135548;27;20021;-74
2021/10/31 07:54:47;;;;;;;;;;;332.90;2329.60;;;;;;5135396;27;19903;-75
2021/10/31 07:57:13;;;;;;;;;;;332.90;2329.60;;;;;;5133676;27;20279;-77
2021/10/31 07:59:39;;;;;;;;;;;333.20;2329.60;;;;;;5117129;27;19913;-79
2021/10/31 08:02:05;;;;;;;;;;;333.20;2329.60;;;;;;5135789;27;19939;-75
2021/10/31 08:04:31;;;;;;;;;;;333.70;2329.60;;;;;;5135787;27;19914;-80
2021/10/31 08:06:57;;;;;;;;;;;333.30;2329.60;;;;;;5135693;27;19948;-76
2021/10/31 08:09:23;;;;;;;;;;;333.40;2329.60;;;;;;5117384;27;19911;-81
2021/10/31 08:11:48;;;;;;;;;;;333.60;2329.60;;;;;;5135438;27;19956;-74
2021/10/31 08:14:14;;;;;;;;;;;333.60;2329.60;;;;;;5122087;27;19954;-74
2021/10/31 08:16:40;;;;;;;;;;;333.40;2329.60;;;;;;5134633;27;20325;-74
2021/10/31 08:19:06;;;;;;;;;;;333.70;2329.60;;;;;;5135079;27;19903;-78
2021/10/31 08:21:32;;;;;;;;;;;333.50;2329.60;;;;;;5116161;27;19908;-79
2021/10/31 08:23:59;;;;;;;;;;;358.40;2329.60;;;;;;5134169;27;19920;-74
2021/10/31 08:26:25;;;;;;;;;;;358.60;2329.60;;;;;;5134999;27;19907;-75
2021/10/31 08:28:51;;;;;;;;;;;358.60;2329.60;;;;;;5132047;27;20009;-80
2021/10/31 08:31:23;;;;;;;;;;;358.80;2329.60;;;;;;5135324;27;20367;-78
2021/10/31 08:33:54;;;;;;;;;;;358.70;2329.60;;;;;;5131100;27;19954;-74
2021/10/31 08:36:20;;;;;;;;;;;358.80;2329.60;;;;;;5135436;27;19904;-79
2021/10/31 08:38:46;;;;;;;;;;;358.90;2329.60;;;;;;5134651;27;20007;-73
2021/10/31 08:41:12;;;;;;;;;;;358.90;2329.60;;;;;;5134724;27;19914;-75
2021/10/31 08:43:40;;;;;;;;;;;359.00;2329.60;;;;;;5135266;27;20018;-73
2021/10/31 08:46:06;;;;;;;;;;;359.10;2329.60;;;;;;5134956;27;19910;-75
2021/10/31 08:48:34;;;;;;;;;;;359.20;2329.60;;;;;;5133072;27;19936;-75
2021/10/31 08:51:00;;;;;;;;;;;359.30;2329.60;;;;;;5130262;27;19954;-73
2021/10/31 08:53:27;;;;;;;;;;;384.10;2329.60;;;;;;5129136;27;19957;-73
2021/10/31 08:55:54;;;;;;;;;;;384.10;2304.00;;;;;;5126648;27;19954;-73
2021/10/31 08:58:19;;;;;;;;;;;384.10;2278.40;;;;;;5129463;27;19911;-72
2021/10/31 09:00:45;;;;;;;;;;;384.20;2278.40;;;;;;5127295;27;19911;-73
2021/10/31 09:03:11;;;;;;;;;;;384.30;2252.80;;;;;;5128389;27;19904;-72
2021/10/31 09:05:36;;;;;;;;;;;384.40;2252.80;;;;;;5130309;27;20268;-80
2021/10/31 09:08:03;;;;;;;;;;;384.40;2252.80;;;;;;5125720;27;20055;-80
2021/10/31 09:10:29;;;;;;;;;;;384.60;2252.80;;;;;;5131207;27;19955;-75
2021/10/31 09:12:55;;;;;;;;;;;384.70;2227.20;;;;;;5098345;28;20273;-76
2021/10/31 09:15:21;;;;;;;;;;;384.70;2201.60;;;;;;5116834;27;19952;-81
2021/10/31 09:17:46;;;;;;;;;;;384.90;2201.60;;;;;;5134420;27;20001;-75
2021/10/31 09:20:12;;;;;;;;;;;409.70;2227.20;;;;;;5134593;27;19904;-74
2021/10/31 09:22:38;;;;;;;;;;;409.80;2176.00;;;;;;5134503;27;19917;-74
2021/10/31 09:25:03;;;;;;;;;;;409.80;2150.40;;;;;;5116050;27;20352;-81
2021/10/31 09:27:29;;;;;;;;;;;410.00;2099.20;;;;;;5134352;27;19904;-74
2021/10/31 09:29:55;;;;;;;;;;;410.20;2099.20;;;;;;5131933;27;20010;-82
2021/10/31 09:32:28;;;;;;;;;;;410.20;2073.60;;;;;;5107273;28;19904;-80
2021/10/31 09:34:53;;;;;;;;;;;410.30;2048.00;;;;;;5096174;28;19904;-81
2021/10/31 09:37:19;;;;;;;;;;;410.50;2073.60;;;;;;5123473;28;19933;-76
2021/10/31 09:39:45;;;;;;;;;;;410.50;2022.40;;;;;;5126649;28;19904;-81
2021/10/31 09:42:12;;;;;;;;;;;410.50;1971.20;;;;;;5118100;28;19907;-80
2021/10/31 09:44:56;;;;;;;;;;;410.50;1971.20;;;;;;5111578;28;19915;-77
2021/10/31 09:47:25;;;;;;;;;;;435.30;1945.60;;;;;;5113405;28;19903;-74
2021/10/31 09:49:51;;;;;;;;;;;435.40;1945.60;;;;;;5123731;28;20356;-75
2021/10/31 09:52:19;;;;;;;;;;;435.50;1920.00;;;;;;5120357;28;19907;-78
2021/10/31 09:54:46;;;;;;;;;;;435.50;1894.40;;;;;;5095689;28;19908;-81
2021/10/31 09:57:12;;;;;;;;;;;435.80;1894.40;;;;;;5115341;28;19903;-82
2021/10/31 09:59:41;;;;;;;;;;;435.80;1843.20;;;;;;5116393;28;19907;-77
2021/10/31 10:04:38;;;;;;;;;;;435.80;1817.60;;;;;;5128008;28;19904;-80
2021/10/31 10:07:05;;;;;;;;;;;435.80;1817.60;;;;;;5134337;28;19904;-81
2021/10/31 10:09:31;;;;;;;;;;;435.90;1817.60;;;;;;5115950;28;20009;-80
2021/10/31 10:12:00;;;;;;;;;;;435.90;1766.40;;;;;;5133949;27;20372;-79
2021/10/31 10:14:30;;;;;;;;;;;436.10;1766.40;;;;;;5134616;28;19918;-76
2021/10/31 10:16:58;;;;;;;;;;;436.10;1740.80;;;;;;5134170;28;19910;-81
2021/10/31 10:19:25;;;;;;;;;;;460.80;1740.80;;;;;;5115943;28;19904;-80
2021/10/31 10:21:52;;;;;;;;;;;460.80;1740.80;;;;;;5137009;27;19927;-76
2021/10/31 10:24:19;;;;;;;;;;;436.10;1715.20;;;;;;5119696;27;19907;-75
2021/10/31 10:26:45;;;;;;;;;;;460.90;1740.80;;;;;;5138040;27;19935;-80
2021/10/31 10:29:12;;;;;;;;;;;461.10;1715.20;;;;;;5137698;27;19919;-76
2021/10/31 10:31:39;;;;;;;;;;;461.10;1715.20;;;;;;5137486;27;19998;-75
2021/10/31 10:34:05;;;;;;;;;;;461.20;1715.20;;;;;;5137739;27;19968;-75
2021/10/31 10:36:47;;;;;;;;;;;461.40;1689.60;;;;;;5137440;27;19951;-80
2021/10/31 10:39:17;;;;;;;;;;;461.40;1715.20;;;;;;5128195;27;19911;-79
2021/10/31 10:41:45;;;;;;;;;;;461.30;1664.00;;;;;;5132340;27;19988;-76
2021/10/31 10:44:31;;;;;;;;;;;461.50;1664.00;;;;;;5137267;27;20387;-79
2021/10/31 10:47:03;;;;;;;;;;;461.50;1638.40;;;;;;5137265;27;19903;-79
2021/10/31 10:49:31;;;;;;;;;;;461.40;1638.40;;;;;;5137221;27;19911;-74
2021/10/31 10:52:04;;;;;;;;;;;461.70;1638.40;;;;;;5137197;27;19904;-78
2021/10/31 10:54:29;;;;;;;;;;;461.60;1612.80;;;;;;5137147;27;20003;-76
2021/10/31 10:57:02;;;;;;;;;;;461.70;1612.80;;;;;;5122689;27;19907;-76
2021/10/31 10:59:29;;;;;;;;;;;486.50;1638.40;;;;;;5118758;27;19911;-76
2021/10/31 11:02:06;;;;;;;;;;;486.50;1587.20;;;;;;5118686;27;19903;-77
2021/10/31 11:04:32;;;;;;;;;;;486.50;1587.20;;;;;;5134665;27;19993;-74
2021/10/31 11:06:58;;;;;;;;;;;486.50;1587.20;;;;;;5136704;27;20391;-78
2021/10/31 11:09:23;;;;;;;;;;;486.50;1587.20;;;;;;5136915;27;19911;-78
2021/10/31 11:11:49;;;;;;;;;;;486.70;1561.60;;;;;;5136509;27;19922;-78
2021/10/31 11:14:15;;;;;;;;;;;486.40;1561.60;;;;;;5136887;27;19907;-79
2021/10/31 11:16:40;;;;;;;;;;;486.50;1561.60;;;;;;5136894;27;19903;-79
2021/10/31 11:19:06;;;;;;;;;;;461.50;1587.20;;;;;;5118436;27;19904;-76
2021/10/31 11:21:32;;;;;;;;;;;486.70;1536.00;;;;;;5136752;27;19960;-77
2021/10/31 11:23:58;;;;;;;;;;;486.70;1536.00;;;;;;5136635;27;19946;-76
2021/10/31 11:26:27;;;;;;;;;;;486.70;1561.60;;;;;;5136823;27;19946;-76
2021/10/31 11:28:53;;;;;;;;;;;486.70;1536.00;;;;;;5118343;27;19914;-77
2021/10/31 11:31:20;;;;;;;;;;;486.60;1536.00;;;;;;5136664;27;19903;-75
2021/10/31 11:33:48;;;;;;;;;;;486.90;1536.00;;;;;;5102923;27;19903;-76
2021/10/31 11:36:14;;;;;;;;;;;486.90;1510.40;;;;;;5136483;27;19946;-79
2021/10/31 11:38:42;;;;;;;;;;;487.00;1510.40;;;;;;5136186;27;20383;-78
2021/10/31 11:41:10;;;;;;;;;;;486.90;1510.40;;;;;;5136290;27;20288;-76
2021/10/31 11:43:36;;;;;;;;;;;486.50;1510.40;;;;;;5136155;27;19984;-77
2021/10/31 11:46:03;;;;;;;;;;;487.00;1536.00;;;;;;5136357;27;19904;-78
2021/10/31 11:48:30;;;;;;;;;;;486.90;1536.00;;;;;;5136007;27;20356;-79
2021/10/31 11:50:59;;;;;;;;;;;487.10;1510.40;;;;;;5136360;27;19918;-78
2021/10/31 11:53:26;;;;;;;;;;;487.00;1484.80;;;;;;5116814;27;19910;-76
2021/10/31 11:55:53;;;;;;;;;;;487.00;1510.40;;;;;;5135898;27;19903;-79
2021/10/31 11:58:23;;;;;;;;;;;486.90;1510.40;;;;;;5135987;27;19909;-76
2021/10/31 12:00:53;;;;;;;;;;;486.90;1510.40;;;;;;5117173;27;19903;-76
2021/10/31 12:03:39;;;;;;;;;;;486.90;1510.40;;;;;;5117444;27;19907;-76
2021/10/31 12:06:14;;;;;;;;;;;487.00;1510.40;;;;;;5114959;28;19912;-78
2021/10/31 12:08:58;;;;;;;;;;;487.00;1510.40;;;;;;5128962;27;19904;-76
2021/10/31 12:11:29;;;;;;;;;;;486.90;1510.40;;;;;;5122892;27;19919;-76
2021/10/31 12:13:55;;;;;;;;;;;486.90;1510.40;;;;;;5124690;27;19919;-77
2021/10/31 12:16:21;;;;;;;;;;;487.00;1510.40;;;;;;5131958;27;19911;-75
2021/10/31 12:18:47;;;;;;;;;;;486.90;1510.40;;;;;;5135604;27;20365;-76
2021/10/31 12:21:36;;;;;;;;;;;486.90;1484.80;;;;;;5133728;27;19911;-77
2021/10/31 12:24:09;;;;;;;;;;;486.80;1484.80;;;;;;5032146;28;19959;-75
2021/10/31 12:26:49;;;;;;;;;;;486.80;1510.40;;;;;;5029028;28;19913;-76
2021/10/31 12:29:17;;;;;;;;;;;486.80;1484.80;;;;;;5031501;28;19925;-75
2021/10/31 12:31:55;;;;;;;;;;;486.70;1510.40;;;;;;5031635;28;19905;-77
2021/10/31 12:34:25;;;;;;;;;;;486.80;1510.40;;;;;;5032000;28;19915;-77
2021/10/31 12:36:52;;;;;;;;;;;486.70;1510.40;;;;;;5032012;28;19905;-75
2021/10/31 12:39:31;;;;;;;;;;;486.70;1510.40;;;;;;5031303;28;19948;-76
2021/10/31 12:42:11;;;;;;;;;;;486.70;1536.00;;;;;;5031448;28;20440;-75
2021/10/31 12:44:37;;;;;;;;;;;486.70;1510.40;;;;;;5031723;28;19909;-75
2021/10/31 12:47:04;;;;;;;;;;;486.50;1510.40;;;;;;5031702;28;19905;-76
2021/10/31 12:49:30;;;;;;;;;;;486.50;1536.00;;;;;;5031784;28;19909;-77
2021/10/31 12:52:03;;;;;;;;;;;486.50;1536.00;;;;;;5031756;28;19924;-78
2021/10/31 12:54:36;;;;;;;;;;;487.10;1536.00;;;;;;5031736;28;19905;-75
2021/10/31 12:57:11;;;;;;;;;;;461.70;1536.00;;;;;;5031513;28;19909;-78
2021/10/31 12:59:44;;;;;;;;;;;461.70;1561.60;;;;;;5031709;28;19915;-74
2021/10/31 13:02:10;;;;;;;;;;;461.60;1561.60;;;;;;5125322;27;20479;-72
2021/10/31 13:04:49;;;;;;;;;;;461.70;1561.60;;;;;;5126860;27;19907;-76
2021/10/31 13:07:14;;;;;;;;;;;486.40;1561.60;;;;;;5130574;27;19910;-75
2021/10/31 13:09:40;;;;;;;;;;;461.50;1561.60;;;;;;5130458;27;19908;-78
2021/10/31 13:12:20;;;;;;;;;;;461.50;1561.60;;;;;;5132427;27;19955;-76
2021/10/31 13:14:46;;;;;;;;;;;461.50;1587.20;;;;;;5127648;27;19956;-74
2021/10/31 13:17:13;;;;;;;;;;;461.50;1561.60;;;;;;5125892;27;19907;-75
2021/10/31 13:19:39;;;;;;;;;;;461.50;1587.20;;;;;;5134225;27;19910;-73
2021/10/31 13:22:15;;;;;;;;;;;461.40;1561.60;;;;;;5134354;27;19903;-74
2021/10/31 13:24:48;;;;;;;;;;;461.30;1561.60;;;;;;5134331;27;20349;-75
2021/10/31 13:27:18;;;;;;;;;;;461.20;1587.20;;;;;;5131135;27;19907;-75
2021/10/31 13:29:45;;;;;;;;;;;461.20;1587.20;;;;;;5126403;27;19912;-75
2021/10/31 13:32:11;;;;;;;;;;;461.20;1561.60;;;;;;5122189;27;19907;-76
2021/10/31 13:34:37;;;;;;;;;;;461.20;1587.20;;;;;;5132521;28;20296;-78
2021/10/31 13:37:05;;;;;;;;;;;461.10;1587.20;;;;;;5134083;28;19911;-75
2021/10/31 13:39:32;;;;;;;;;;;461.10;1587.20;;;;;;5115532;28;20386;-75
2021/10/31 13:42:00;;;;;;;;;;;461.10;1612.80;;;;;;5134192;28;19949;-76
2021/10/31 13:44:26;;;;;;;;;;;461.10;1587.20;;;;;;5134263;28;19908;-78
2021/10/31 13:47:22;;;;;;;;;;;461.00;1612.80;;;;;;5133947;28;19962;-77